Time;durP1;ratioP1;P1;durP2;ratioP2;P2;SDS_P1;SDS_P2;PMS_P1;PMS_P2;Temp;Humidity;BMP_temperature;BMP_pressure;BME280_temperature;BME280_humidity;BME280_pressure;Samples;Min_cycle;Max_cycle;Signal;HPM_P1;HPM_P2
2022/09/16 00:01:11;;;;;;;0.73;0.38;;;;;;;;;;10318840;28;20042;-79
2022/09/16 00:06:20;;;;;;;2.05;0.40;;;;;;;;;;10320181;28;20038;-79
2022/09/16 00:11:23;;;;;;;1.52;0.30;;;;;;;;;;10319980;28;20503;-78
2022/09/16 00:16:29;;;;;;;0.68;0.35;;;;;;;;;;10329897;28;20042;-78
2022/09/16 00:21:32;;;;;;;0.20;0.20;;;;;;;;;;10319626;28;20044;-79
2022/09/16 00:26:37;;;;;;;0.90;0.25;;;;;;;;;;10330072;28;20114;-79
2022/09/16 00:31:42;;;;;;;1.08;0.30;;;;;;;;;;10319148;28;20034;-79
2022/09/16 00:36:45;;;;;;;0.80;0.25;;;;;;;;;;10318835;28;20046;-77
2022/09/16 00:41:48;;;;;;;1.95;0.30;;;;;;;;;;10336221;28;20042;-79
2022/09/16 00:46:54;;;;;;;0.63;0.30;;;;;;;;;;10336288;28;20549;-79
2022/09/16 00:52:02;;;;;;;;;;;;;;;;;;10318938;28;20560;-79
2022/09/16 00:57:09;;;;;;;0.47;0.30;;;;;;;;;;10336111;28;19922;-78
2022/09/16 01:02:18;;;;;;;0.73;0.30;;;;;;;;;;10319294;28;20047;-79
2022/09/16 01:07:30;;;;;;;0.50;0.30;;;;;;;;;;10337319;28;20043;-78
2022/09/16 01:12:34;;;;;;;1.58;0.52;;;;;;;;;;10317591;28;20045;-79
2022/09/16 01:17:50;;;;;;;1.13;0.40;;;;;;;;;;10307562;28;20048;-79
2022/09/16 01:23:11;;;;;;;0.77;0.20;;;;;;;;;;10332590;28;20144;-77
2022/09/16 01:28:39;;;;;;;2.50;0.40;;;;;;;;;;10291721;28;20689;-78
2022/09/16 01:33:52;;;;;;;1.13;0.30;;;;;;;;;;10303329;28;20133;-78
2022/09/16 01:39:12;;;;;;;1.42;0.40;;;;;;;;;;10334481;28;20070;-78
2022/09/16 01:44:20;;;;;;;1.85;0.60;;;;;;;;;;10316012;28;20043;-77
2022/09/16 01:49:35;;;;;;;1.63;0.30;;;;;;;;;;10316129;28;20042;-79
2022/09/16 01:54:42;;;;;;;0.90;0.30;;;;;;;;;;10333952;28;20042;-78
2022/09/16 01:59:52;;;;;;;1.58;0.50;;;;;;;;;;10316277;28;20053;-78
2022/09/16 02:04:59;;;;;;;1.15;0.40;;;;;;;;;;10325240;28;20052;-77
2022/09/16 02:10:10;;;;;;;2.10;0.60;;;;;;;;;;10333947;28;20047;-79
2022/09/16 02:15:20;;;;;;;0.65;0.30;;;;;;;;;;10334380;28;20125;-79
2022/09/16 02:20:28;;;;;;;1.42;0.40;;;;;;;;;;10333647;28;20053;-79
2022/09/16 02:25:35;;;;;;;1.38;0.50;;;;;;;;;;10316663;28;20042;-78
2022/09/16 02:30:40;;;;;;;0.25;0.25;;;;;;;;;;10326558;28;20045;-78
2022/09/16 02:35:48;;;;;;;1.90;0.50;;;;;;;;;;10333021;28;20042;-78
2022/09/16 02:40:56;;;;;;;3.40;0.75;;;;;;;;;;10315432;28;20046;-78
2022/09/16 02:46:08;;;;;;;2.20;0.63;;;;;;;;;;10332483;28;20499;-78
2022/09/16 02:51:24;;;;;;;1.30;0.60;;;;;;;;;;10331775;28;20042;-77
2022/09/16 02:56:30;;;;;;;1.10;0.30;;;;;;;;;;10331914;28;20035;-79
2022/09/16 03:01:37;;;;;;;1.20;0.65;;;;;;;;;;10331394;28;20050;-79
2022/09/16 03:06:42;;;;;;;1.45;0.35;;;;;;;;;;10323721;28;20427;-77
2022/09/16 03:12:10;;;;;;;0.40;0.40;;;;;;;;;;10331087;28;20038;-78
2022/09/16 03:17:28;;;;;;;1.10;0.60;;;;;;;;;;10330410;28;20117;-78
2022/09/16 03:22:45;;;;;;;0.95;0.45;;;;;;;;;;10331164;28;20141;-79
2022/09/16 03:27:53;;;;;;;2.40;0.40;;;;;;;;;;10325540;28;20058;-79
2022/09/16 03:33:01;;;;;;;0.93;0.40;;;;;;;;;;10319165;28;20042;-80
2022/09/16 03:38:08;;;;;;;0.95;0.35;;;;;;;;;;10336330;28;20039;-79
2022/09/16 03:43:12;;;;;;;0.93;0.40;;;;;;;;;;10318333;28;20058;-79
2022/09/16 03:48:15;;;;;;;2.35;0.50;;;;;;;;;;10334646;28;20057;-77
2022/09/16 03:53:20;;;;;;;3.72;0.45;;;;;;;;;;10313792;28;20515;-78
2022/09/16 03:58:23;;;;;;;1.77;0.52;;;;;;;;;;10303648;28;20057;-78
2022/09/16 04:03:27;;;;;;;1.65;0.50;;;;;;;;;;10328370;28;20054;-79
2022/09/16 04:08:35;;;;;;;2.25;0.50;;;;;;;;;;10311829;28;20046;-79
2022/09/16 04:13:38;;;;;;;1.08;0.55;;;;;;;;;;10311131;28;20046;-78
2022/09/16 04:18:41;;;;;;;0.68;0.40;;;;;;;;;;10336138;28;20054;-78
2022/09/16 04:23:46;;;;;;;2.50;0.68;;;;;;;;;;10319722;28;20058;-79
2022/09/16 04:28:51;;;;;;;3.28;0.80;;;;;;;;;;10319634;28;20043;-77
2022/09/16 04:33:54;;;;;;;0.90;0.60;;;;;;;;;;10329501;28;20050;-77
2022/09/16 04:38:59;;;;;;;2.05;0.60;;;;;;;;;;10320262;28;20057;-80
2022/09/16 04:44:03;;;;;;;4.50;0.80;;;;;;;;;;10338226;28;20034;-77
2022/09/16 04:49:06;;;;;;;2.15;0.82;;;;;;;;;;10336778;28;20133;-77
2022/09/16 04:54:11;;;;;;;1.35;0.68;;;;;;;;;;10336670;28;20114;-78
2022/09/16 04:59:14;;;;;;;3.17;0.70;;;;;;;;;;10335964;28;20487;-77
2022/09/16 05:04:18;;;;;;;4.97;1.20;;;;;;;;;;10319238;28;20056;-79
2022/09/16 05:09:22;;;;;;;1.55;0.70;;;;;;;;;;10318045;28;20093;-78
2022/09/16 05:14:26;;;;;;;3.25;0.60;;;;;;;;;;10317020;28;20043;-78
2022/09/16 05:19:30;;;;;;;1.55;0.77;;;;;;;;;;10334278;28;20121;-79
2022/09/16 05:24:36;;;;;;;3.13;0.90;;;;;;;;;;10317008;28;20053;-77
2022/09/16 05:29:39;;;;;;;1.00;0.52;;;;;;;;;;10327108;28;20050;-77
2022/09/16 05:34:42;;;;;;;2.83;0.70;;;;;;;;;;10317202;28;20053;-78
2022/09/16 05:39:48;;;;;;;2.35;0.40;;;;;;;;;;10315933;28;20042;-79
2022/09/16 05:44:51;;;;;;;1.67;0.73;;;;;;;;;;10336826;28;20507;-79
2022/09/16 05:49:54;;;;;;;3.78;0.80;;;;;;;;;;10339879;28;20050;-79
2022/09/16 05:54:59;;;;;;;1.85;0.68;;;;;;;;;;10322604;28;20054;-79
2022/09/16 06:00:03;;;;;;;1.40;0.80;;;;;;;;;;10320415;28;20255;-77
2022/09/16 06:05:12;;;;;;;1.65;0.82;;;;;;;;;;10337946;28;20049;-78
2022/09/16 06:10:17;;;;;;;2.78;0.68;;;;;;;;;;10335347;28;20049;-78
2022/09/16 06:15:20;;;;;;;2.50;0.80;;;;;;;;;;10319130;28;20053;-79
2022/09/16 06:20:24;;;;;;;3.42;0.80;;;;;;;;;;10334918;28;20065;-79
2022/09/16 06:25:28;;;;;;;2.75;1.10;;;;;;;;;;10318260;28;20506;-79
2022/09/16 06:30:32;;;;;;;3.75;1.13;;;;;;;;;;10334782;28;20446;-78
2022/09/16 06:35:35;;;;;;;2.75;0.80;;;;;;;;;;10334604;28;20047;-79
2022/09/16 06:40:40;;;;;;;4.18;1.13;;;;;;;;;;10326667;28;20446;-78
2022/09/16 06:45:43;;;;;;;6.78;2.00;;;;;;;;;;10334178;28;20065;-78
2022/09/16 06:50:46;;;;;;;2.00;0.73;;;;;;;;;;10332736;28;20129;-77
2022/09/16 06:55:51;;;;;;;4.43;0.85;;;;;;;;;;10331524;28;20418;-78
2022/09/16 07:00:54;;;;;;;3.28;0.90;;;;;;;;;;10312524;28;20054;-78
2022/09/16 07:06:00;;;;;;;0.60;0.40;;;;;;;;;;10313445;28;21584;-78
2022/09/16 07:11:06;;;;;;;4.97;1.10;;;;;;;;;;10312718;28;20042;-78
2022/09/16 07:16:11;;;;;;;5.43;0.80;;;;;;;;;;10312635;28;20582;-78
2022/09/16 07:21:17;;;;;;;2.95;0.68;;;;;;;;;;10312435;28;20048;-78
2022/09/16 07:26:25;;;;;;;5.68;0.73;;;;;;;;;;10312585;28;20035;-79
2022/09/16 07:31:29;;;;;;;1.42;0.70;;;;;;;;;;10330331;28;20046;-78
2022/09/16 07:36:35;;;;;;;3.40;1.00;;;;;;;;;;10329847;28;20042;-79
2022/09/16 07:41:41;;;;;;;2.65;0.68;;;;;;;;;;10305179;28;20038;-79
2022/09/16 07:46:45;;;;;;;;;;;;;;;;;;10316883;28;20053;-78
2022/09/16 07:51:48;;;;;;;1.50;0.73;;;;;;;;;;10337529;28;19922;-78
2022/09/16 07:56:52;;;;;;;2.05;0.60;;;;;;;;;;10337335;28;20050;-78
2022/09/16 08:01:56;;;;;;;3.30;0.80;;;;;;;;;;10340605;28;20050;-79
2022/09/16 08:06:59;;;;;;;2.38;0.38;;;;;;;;;;10340272;28;20046;-79
2022/09/16 08:12:06;;;;;;;1.80;0.50;;;;;;;;;;10340170;28;20046;-79
2022/09/16 08:17:10;;;;;;;2.88;0.50;;;;;;;;;;10321486;28;20042;-79
2022/09/16 08:22:13;;;;;;;3.65;0.60;;;;;;;;;;10338640;28;20661;-78
2022/09/16 08:27:18;;;;;;;2.35;0.57;;;;;;;;;;10338310;28;20069;-78
2022/09/16 08:32:21;;;;;;;3.60;1.23;;;;;;;;;;10319972;28;20042;-78
2022/09/16 08:37:24;;;;;;;3.13;0.80;;;;;;;;;;10336975;28;20045;-78
2022/09/16 08:42:42;;;;;;;1.98;0.60;;;;;;;;;;10336308;28;20038;-79
2022/09/16 08:48:00;;;;;;;3.05;0.60;;;;;;;;;;10312122;28;20042;-78
2022/09/16 08:53:07;;;;;;;3.30;0.68;;;;;;;;;;10318642;28;20050;-78
2022/09/16 08:58:16;;;;;;;4.22;0.63;;;;;;;;;;10316664;28;20046;-78
2022/09/16 09:03:36;;;;;;;1.55;0.32;;;;;;;;;;10317650;28;20046;-79
2022/09/16 09:08:49;;;;;;;3.85;0.65;;;;;;;;;;10334884;28;20053;-78
2022/09/16 09:14:10;;;;;;;2.67;0.70;;;;;;;;;;10334543;28;20065;-78
2022/09/16 09:19:34;;;;;;;5.07;0.77;;;;;;;;;;10333539;28;20120;-77
2022/09/16 09:25:03;;;;;;;3.20;0.50;;;;;;;;;;10316655;28;20043;-78
2022/09/16 09:30:15;;;;;;;0.73;0.40;;;;;;;;;;10333063;28;20043;-78
2022/09/16 09:35:46;;;;;;;1.88;0.70;;;;;;;;;;10315494;28;20411;-79
2022/09/16 09:40:52;;;;;;;2.30;0.50;;;;;;;;;;10309272;28;20396;-78
2022/09/16 09:46:02;;;;;;;0.90;0.30;;;;;;;;;;10331940;28;20414;-78
2022/09/16 09:51:13;;;;;;;1.15;0.40;;;;;;;;;;10314348;28;20097;-78
2022/09/16 09:56:21;;;;;;;1.05;0.22;;;;;;;;;;10314469;28;20042;-78
2022/09/16 10:01:26;;;;;;;0.57;0.35;;;;;;;;;;10313874;28;20042;-78
2022/09/16 10:06:33;;;;;;;1.35;0.30;;;;;;;;;;10331778;28;20043;-78
2022/09/16 10:11:46;;;;;;;2.47;0.40;;;;;;;;;;10322637;28;20042;-78
2022/09/16 10:16:52;;;;;;;1.00;0.40;;;;;;;;;;10312844;28;20050;-78
2022/09/16 10:22:08;;;;;;;1.55;0.50;;;;;;;;;;10329665;28;20061;-78
2022/09/16 10:27:19;;;;;;;;;;;;;;;;;;10316195;28;20049;-79
2022/09/16 10:32:24;;;;;;;3.47;0.50;;;;;;;;;;10334953;28;19928;-79
2022/09/16 10:37:28;;;;;;;3.65;0.80;;;;;;;;;;10316073;28;20049;-78
2022/09/16 10:42:31;;;;;;;4.13;0.73;;;;;;;;;;10316291;28;20073;-78
2022/09/16 10:47:37;;;;;;;4.43;0.50;;;;;;;;;;10314800;28;20458;-79
2022/09/16 10:52:41;;;;;;;;;;;;;;;;;;10316064;28;20058;-79
2022/09/16 10:57:45;;;;;;;1.80;0.40;;;;;;;;;;10312773;28;19960;-78
2022/09/16 11:03:48;;;;;;;0.95;0.40;;;;;;;;;;10310053;28;20640;-77
2022/09/16 11:09:00;;;;;;;0.35;0.25;;;;;;;;;;10304820;28;20137;-78
2022/09/16 11:14:12;;;;;;;1.55;0.32;;;;;;;;;;10328271;28;20097;-78
2022/09/16 11:19:26;;;;;;;1.30;0.40;;;;;;;;;;10309212;28;20043;-78
2022/09/16 11:24:44;;;;;;;1.77;0.40;;;;;;;;;;10318315;28;20038;-78
2022/09/16 11:29:57;;;;;;;0.85;0.22;;;;;;;;;;10309523;28;20165;-79
2022/09/16 11:35:22;;;;;;;1.00;0.40;;;;;;;;;;10315168;28;20035;-78
2022/09/16 11:40:33;;;;;;;1.83;0.50;;;;;;;;;;10332599;28;20042;-77
2022/09/16 11:45:47;;;;;;;0.40;0.20;;;;;;;;;;10333320;28;20040;-77
2022/09/16 11:50:58;;;;;;;1.67;0.45;;;;;;;;;;10316074;28;20043;-77
2022/09/16 11:56:07;;;;;;;0.52;0.20;;;;;;;;;;10315553;28;20042;-78
2022/09/16 12:01:26;;;;;;;1.55;0.10;;;;;;;;;;10314899;28;20046;-80
2022/09/16 12:06:38;;;;;;;0.20;0.10;;;;;;;;;;10314885;28;20580;-79
2022/09/16 12:11:45;;;;;;;0.57;0.20;;;;;;;;;;10331420;28;20049;-77
2022/09/16 12:16:53;;;;;;;0.22;0.10;;;;;;;;;;10331648;28;20050;-78
2022/09/16 12:22:04;;;;;;;1.00;0.28;;;;;;;;;;10313679;28;20049;-77
2022/09/16 12:27:19;;;;;;;0.70;0.20;;;;;;;;;;10331597;28;20435;-78
2022/09/16 12:32:30;;;;;;;1.10;0.30;;;;;;;;;;10330528;28;20053;-78
2022/09/16 12:37:40;;;;;;;1.42;0.17;;;;;;;;;;10313484;28;20105;-81
2022/09/16 12:43:18;;;;;;;0.93;0.30;;;;;;;;;;10323560;28;20045;-79
2022/09/16 12:48:43;;;;;;;1.95;0.40;;;;;;;;;;10330001;28;20057;-79
2022/09/16 12:54:09;;;;;;;1.17;0.20;;;;;;;;;;10307236;28;20069;-78
2022/09/16 12:59:31;;;;;;;;;;;;;;;;;;10310571;28;20038;-78
2022/09/16 13:04:40;;;;;;;1.00;0.20;;;;;;;;;;10329690;28;19922;-80
2022/09/16 13:09:46;;;;;;;0.47;0.13;;;;;;;;;;10304726;28;20046;-77
2022/09/16 13:14:51;;;;;;;;;;;;;;;;;;10312811;28;20046;-79
2022/09/16 13:19:56;;;;;;;0.73;0.20;;;;;;;;;;10310720;28;20374;-78
2022/09/16 13:25:09;;;;;;;0.52;0.30;;;;;;;;;;10329079;28;20053;-77
2022/09/16 13:30:32;;;;;;;2.22;0.70;;;;;;;;;;10311254;28;20037;-78
2022/09/16 13:35:41;;;;;;;0.40;0.20;;;;;;;;;;10329166;28;20046;-78
2022/09/16 13:40:58;;;;;;;2.38;0.32;;;;;;;;;;10320196;28;20046;-78
2022/09/16 13:46:06;;;;;;;1.10;0.25;;;;;;;;;;10327424;28;20045;-78
2022/09/16 13:51:20;;;;;;;0.32;0.30;;;;;;;;;;10310826;28;20046;-76
2022/09/16 13:56:45;;;;;;;1.77;0.32;;;;;;;;;;10321357;28;20058;-80
2022/09/16 14:01:55;;;;;;;1.60;0.50;;;;;;;;;;10303665;28;20050;-76
2022/09/16 14:07:14;;;;;;;1.55;0.28;;;;;;;;;;10327235;28;20049;-77
2022/09/16 14:12:22;;;;;;;;;;;;;;;;;;10327131;28;20038;-77
2022/09/16 14:17:27;;;;;;;1.85;0.52;;;;;;;;;;10309233;28;20293;-78
2022/09/16 14:22:32;;;;;;;2.20;0.40;;;;;;;;;;10326668;28;20046;-77
2022/09/16 14:27:38;;;;;;;0.93;0.15;;;;;;;;;;10329294;28;20042;-83
2022/09/16 14:32:41;;;;;;;1.13;0.30;;;;;;;;;;10313104;28;20042;-78
2022/09/16 14:37:46;;;;;;;1.15;0.30;;;;;;;;;;10310413;28;20046;-78
2022/09/16 14:42:54;;;;;;;0.55;0.30;;;;;;;;;;10326943;28;20534;-79
2022/09/16 14:48:00;;;;;;;0.73;0.20;;;;;;;;;;10309083;28;20050;-78
2022/09/16 14:53:04;;;;;;;;;;;;;;;;;;10328291;28;20045;-78
2022/09/16 14:58:11;;;;;;;0.00;0.00;;;;;;;;;;10327105;28;19928;-78
2022/09/16 15:03:17;;;;;;;0.30;0.20;;;;;;;;;;10328300;28;20034;-79
2022/09/16 15:08:23;;;;;;;0.53;0.20;;;;;;;;;;10309707;28;20057;-77
2022/09/16 15:13:30;;;;;;;0.50;0.10;;;;;;;;;;10326950;28;20042;-77
2022/09/16 15:18:35;;;;;;;0.98;0.30;;;;;;;;;;10325509;28;20050;-77
2022/09/16 15:23:41;;;;;;;0.60;0.40;;;;;;;;;;10300403;28;20049;-79
2022/09/16 15:29:01;;;;;;;0.37;0.20;;;;;;;;;;10307390;28;20049;-78
2022/09/16 15:34:19;;;;;;;0.73;0.22;;;;;;;;;;10324986;28;20073;-78
2022/09/16 15:39:25;;;;;;;0.22;0.20;;;;;;;;;;10324573;28;20038;-79
2022/09/16 15:44:30;;;;;;;1.25;0.40;;;;;;;;;;10324616;28;20049;-78
2022/09/16 15:49:39;;;;;;;0.50;0.30;;;;;;;;;;10306585;28;20074;-78
2022/09/16 15:54:48;;;;;;;0.17;0.17;;;;;;;;;;10317648;28;20054;-77
2022/09/16 16:00:08;;;;;;;1.15;0.20;;;;;;;;;;10324110;28;20050;-77
2022/09/16 16:05:17;;;;;;;0.13;0.10;;;;;;;;;;10324671;28;20502;-79
2022/09/16 16:10:22;;;;;;;0.77;0.30;;;;;;;;;;10331886;28;20406;-76
2022/09/16 16:15:31;;;;;;;0.15;0.15;;;;;;;;;;10331970;28;20516;-77
2022/09/16 16:20:50;;;;;;;0.68;0.40;;;;;;;;;;10317749;28;20065;-79
2022/09/16 16:25:55;;;;;;;0.60;0.38;;;;;;;;;;10313776;28;20089;-79
2022/09/16 16:31:14;;;;;;;0.47;0.47;;;;;;;;;;10335597;28;20117;-78
2022/09/16 16:36:19;;;;;;;0.60;0.30;;;;;;;;;;10318932;28;20581;-79
2022/09/16 16:41:23;;;;;;;0.28;0.20;;;;;;;;;;10335759;28;20057;-79
2022/09/16 16:46:29;;;;;;;0.25;0.20;;;;;;;;;;10336040;28;20041;-78
2022/09/16 16:51:32;;;;;;;;;;;;;;;;;;10310518;28;20133;-77
2022/09/16 16:56:38;;;;;;;0.80;0.25;;;;;;;;;;10310023;28;20394;-78
2022/09/16 17:01:44;;;;;;;0.70;0.10;;;;;;;;;;10317776;28;20141;-78
2022/09/16 17:06:51;;;;;;;0.55;0.10;;;;;;;;;;10336184;28;20050;-78
2022/09/16 17:12:05;;;;;;;0.60;0.20;;;;;;;;;;10334924;28;20034;-78
2022/09/16 17:17:10;;;;;;;0.30;0.30;;;;;;;;;;10337180;28;20123;-78
2022/09/16 17:22:13;;;;;;;0.52;0.30;;;;;;;;;;10323750;28;20392;-78
2022/09/16 17:27:19;;;;;;;2.13;0.55;;;;;;;;;;10340392;28;20053;-80
2022/09/16 17:32:24;;;;;;;0.50;0.50;;;;;;;;;;10322164;28;20043;-77
2022/09/16 17:37:27;;;;;;;0.98;0.40;;;;;;;;;;10321754;28;20042;-79
2022/09/16 17:42:30;;;;;;;0.40;0.30;;;;;;;;;;10337753;28;20043;-79
2022/09/16 17:47:35;;;;;;;0.55;0.40;;;;;;;;;;10336882;28;20038;-78
2022/09/16 17:52:39;;;;;;;0.30;0.30;;;;;;;;;;10319955;28;20085;-79
2022/09/16 17:57:42;;;;;;;0.77;0.35;;;;;;;;;;10318876;28;20050;-79
2022/09/16 18:02:47;;;;;;;0.45;0.30;;;;;;;;;;10318592;28;20410;-78
2022/09/16 18:07:50;;;;;;;0.73;0.38;;;;;;;;;;10318663;28;20042;-79
2022/09/16 18:12:53;;;;;;;0.95;0.43;;;;;;;;;;10334068;28;20069;-79
2022/09/16 18:17:58;;;;;;;0.57;0.30;;;;;;;;;;10333197;28;20046;-78
2022/09/16 18:23:02;;;;;;;0.88;0.20;;;;;;;;;;10316038;28;20044;-79
2022/09/16 18:28:06;;;;;;;0.40;0.20;;;;;;;;;;10315592;28;20077;-79
2022/09/16 18:33:11;;;;;;;0.28;0.20;;;;;;;;;;10315304;28;20062;-79
2022/09/16 18:38:16;;;;;;;0.10;0.10;;;;;;;;;;10314287;28;20469;-80
2022/09/16 18:43:19;;;;;;;1.45;0.20;;;;;;;;;;10315784;28;20034;-79
2022/09/16 18:48:23;;;;;;;0.75;0.30;;;;;;;;;;10313566;28;20051;-78
2022/09/16 18:53:27;;;;;;;0.20;0.20;;;;;;;;;;10315163;28;20050;-80
2022/09/16 18:58:31;;;;;;;0.30;0.30;;;;;;;;;;10331541;28;20427;-79
2022/09/16 19:03:35;;;;;;;0.30;0.30;;;;;;;;;;10313594;28;20053;-79
2022/09/16 19:08:39;;;;;;;0.75;0.40;;;;;;;;;;10305522;28;20403;-80
2022/09/16 19:13:43;;;;;;;0.30;0.30;;;;;;;;;;10331337;28;20050;-79
2022/09/16 19:18:52;;;;;;;0.20;0.20;;;;;;;;;;10312776;28;20058;-78
2022/09/16 19:23:57;;;;;;;0.52;0.38;;;;;;;;;;10330428;28;20137;-78
2022/09/16 19:29:01;;;;;;;0.40;0.40;;;;;;;;;;10312954;28;20121;-79
2022/09/16 19:34:06;;;;;;;0.25;0.25;;;;;;;;;;10313944;28;20046;-79
2022/09/16 19:39:10;;;;;;;0.35;0.30;;;;;;;;;;10318284;28;20141;-79
2022/09/16 19:44:16;;;;;;;0.40;0.20;;;;;;;;;;10338820;28;20403;-80
2022/09/16 19:49:21;;;;;;;0.30;0.20;;;;;;;;;;10321869;28;20149;-80
2022/09/16 19:54:25;;;;;;;0.37;0.30;;;;;;;;;;10337920;28;20042;-79
2022/09/16 19:59:28;;;;;;;0.73;0.40;;;;;;;;;;10336483;28;20121;-80
2022/09/16 20:04:33;;;;;;;0.93;0.65;;;;;;;;;;10318621;28;20076;-79
2022/09/16 20:09:36;;;;;;;0.30;0.30;;;;;;;;;;10318628;28;20046;-78
2022/09/16 20:14:40;;;;;;;1.95;0.45;;;;;;;;;;10318743;28;20061;-79
2022/09/16 20:19:45;;;;;;;0.30;0.22;;;;;;;;;;10318759;28;20073;-79
2022/09/16 20:24:49;;;;;;;0.25;0.20;;;;;;;;;;10317846;28;20554;-79
2022/09/16 20:30:07;;;;;;;0.50;0.20;;;;;;;;;;10318164;28;20045;-78
2022/09/16 20:35:12;;;;;;;0.30;0.20;;;;;;;;;;10319881;28;20054;-79
2022/09/16 20:40:15;;;;;;;0.50;0.20;;;;;;;;;;10336364;28;20133;-78
2022/09/16 20:45:19;;;;;;;0.43;0.20;;;;;;;;;;10319139;28;20125;-80
2022/09/16 20:50:24;;;;;;;1.35;0.55;;;;;;;;;;10335854;28;20050;-78
2022/09/16 20:55:27;;;;;;;0.40;0.40;;;;;;;;;;10318855;28;20506;-79
2022/09/16 21:00:31;;;;;;;1.38;0.52;;;;;;;;;;10318118;28;20495;-80
2022/09/16 21:05:36;;;;;;;0.85;0.40;;;;;;;;;;10335041;28;20081;-80
2022/09/16 21:10:40;;;;;;;0.47;0.40;;;;;;;;;;10327611;28;20042;-80
2022/09/16 21:15:43;;;;;;;1.17;0.80;;;;;;;;;;10318046;28;20129;-78
2022/09/16 21:20:48;;;;;;;1.25;0.55;;;;;;;;;;10317157;28;20056;-78
2022/09/16 21:25:51;;;;;;;1.27;0.47;;;;;;;;;;10316966;28;20544;-78
2022/09/16 21:31:00;;;;;;;0.52;0.40;;;;;;;;;;10316992;28;20194;-79
2022/09/16 21:36:06;;;;;;;0.32;0.32;;;;;;;;;;10334574;28;20487;-80
2022/09/16 21:41:11;;;;;;;1.52;0.82;;;;;;;;;;10306207;28;20050;-79
2022/09/16 21:46:18;;;;;;;2.22;0.50;;;;;;;;;;10316346;28;20101;-79
2022/09/16 21:51:23;;;;;;;1.45;0.50;;;;;;;;;;10334296;28;20048;-79
2022/09/16 21:56:26;;;;;;;1.50;0.98;;;;;;;;;;10336208;28;20073;-80
2022/09/16 22:01:33;;;;;;;0.90;0.73;;;;;;;;;;10318000;28;20133;-80
2022/09/16 22:06:41;;;;;;;7.05;1.00;;;;;;;;;;10310441;28;20129;-78
2022/09/16 22:11:45;;;;;;;1.30;1.00;;;;;;;;;;10317882;28;20073;-79
2022/09/16 22:16:48;;;;;;;1.13;0.90;;;;;;;;;;10335364;28;20108;-78
2022/09/16 22:21:53;;;;;;;0.60;0.60;;;;;;;;;;10335257;28;20046;-80
2022/09/16 22:26:59;;;;;;;1.27;1.00;;;;;;;;;;10317436;28;20134;-78
2022/09/16 22:32:02;;;;;;;0.83;0.40;;;;;;;;;;10334021;28;20491;-79
2022/09/16 22:37:08;;;;;;;0.43;0.30;;;;;;;;;;10315557;28;20297;-79
2022/09/16 22:42:11;;;;;;;1.15;0.40;;;;;;;;;;10317261;28;20046;-79
2022/09/16 22:47:14;;;;;;;1.17;0.50;;;;;;;;;;10316481;28;20057;-78
2022/09/16 22:52:19;;;;;;;2.35;0.40;;;;;;;;;;10315439;28;20137;-80
2022/09/16 22:57:23;;;;;;;4.00;0.88;;;;;;;;;;10315773;28;20069;-79
2022/09/16 23:02:28;;;;;;;0.88;0.43;;;;;;;;;;10334025;28;20074;-78
2022/09/16 23:07:33;;;;;;;1.95;0.52;;;;;;;;;;10332349;28;20061;-79
2022/09/16 23:12:36;;;;;;;3.35;0.85;;;;;;;;;;10332079;28;20057;-80
2022/09/16 23:17:40;;;;;;;1.10;0.40;;;;;;;;;;10312522;28;20081;-79
2022/09/16 23:22:45;;;;;;;1.00;0.50;;;;;;;;;;10314275;28;20415;-79
2022/09/16 23:27:51;;;;;;;0.80;0.40;;;;;;;;;;10312680;28;20047;-80
2022/09/16 23:32:56;;;;;;;2.78;0.75;;;;;;;;;;10313870;28;20097;-79
2022/09/16 23:38:01;;;;;;;0.68;0.50;;;;;;;;;;10313448;28;20064;-78
2022/09/16 23:43:05;;;;;;;3.03;0.40;;;;;;;;;;10312685;28;20700;-78
2022/09/16 23:48:09;;;;;;;1.02;0.32;;;;;;;;;;10312318;28;20133;-80
2022/09/16 23:53:13;;;;;;;1.92;0.55;;;;;;;;;;10330383;28;20043;-80
2022/09/16 23:58:17;;;;;;;1.40;0.55;;;;;;;;;;10313180;28;20617;-79
